Airfield :
LOGIN :

Register | Disclaimer

   EN    FR    IT 

 










Legend :    VFR   Marginal VFR   IFR   Intensive IFR   Very Intensive IFR
Visi :
Ceiling :
>= 8 km
>= 3000ft
5 to 8 km
1000 to 3000 ft
1500m to 5 km
500 to 1000 ft
800 to 1500m
200 to 500 ft
< 800m
< 200 ft
Symbols :   Thunderstorms  Fog  Heavy snow  Heavy precipitations  Wind > 20 kt
SIGMETs :     Misc.  Thunderstorms  Icing  Turbulence  Mountain Waves  Volcanic Ashes






- Airport Elevation : 358 ft


EGTC - Cranfield

CURRENT METAR :
  • 270920Z 23007KT 0500 FG VV001 05/05 Q1011

EXPIRED METARs :
  • 270850Z 23006KT 0400 FG VV002 05/05 Q1011
  • 270820Z 23006KT 1800 0800S BR VV001 05/05 Q1010

TAF TAF EGTC
Valid from the 27 at 09:00 until the 27 at 18:00 UTC


270906Z 2709/2718 23006KT 2000 BR BKN002
BECMG 2709/2712 9999 NSW SCT010
PROB40
TEMPO 2709/2711 0300 FG BKN001
PROB30
TEMPO 2711/2715 BKN008
BECMG 2715/2718 BKN009
PROB30 2715/2718 4000 BR



MET'MAP, your aeronautical weather chart ! - Copyright ORBIFLY December 2007 - Disclaimer

ORBIFLY MET'MAP TEAM :

Programming & Development : Alexandra Zaïnal
Concept & original design : Baudouin d'Aumeries
Assistance for programming : Marc-Olivier Méhu
Technical & hardware support : Manuel Goepfert

Contact : metmap@orbifly.com




SOURCES & CREDITS :

   NOAA